Jogging de Saint-Georges S/M 2014
Les Côtes du Dragon 10,9 km
Les Plates Côtes 5 km
Le 02/11/2014
5 km
Pl. Dos. Nom Prénom Sexe Pl./S. Cat. Pl./Cat. Temps
1 1168 THIRY Jean M 1 EG 1 00:16:51
2 1110 DEFRAINE Nathan M 2 EG 2 00:17:11
3 1098 D'AURILIO Simeon M 3 EG 3 00:18:11
4 1181 LAMOLINE Guillaume M 4 SE 1 00:18:14
5 1243 CORNEROTTE Vincent M 5 SE 2 00:18:17
6 1099 D'AURILIO Marvin M 6 EG 4 00:19:03
7 1197 VONNECHE Didier M 7 V1 1 00:19:16
8 1149 DEMONTY Nicolas M 8 EG 5 00:19:21
9 1096 GILLET Dominique M 9 V1 2 00:19:33
10 1092 BRISSINCK Quentin M 10 SE 3 00:19:33
11 1101 MATHIJS Dries M 11 SE 4 00:19:35
12 1159 FRISSON David M 12 SE 5 00:19:45
13 1102 BONSIGNORE Alexandre M 13 V1 3 00:19:47
14 1898 MARCHAND Pascal M 14 SE 6 00:19:53
15 1195 VONNECHE Elouan M 15 EG 6 00:21:04
16 1245 BEINE Cyril M 16 EG 7 00:21:07
17 1212 DE CONININCK Timothée M 17 EG 8 00:21:11
18 1263 DEWALLEF Noa M 18 EG 9 00:21:22
19 1122 MOTMANS Maxime M 19 EG 10 00:21:32
20 1220 JOURDAN Thibaud M 20 EG 11 00:22:03
21 1148 DEMONTY Loic M 21 EG 12 00:22:11
22 1171 THIRY Nora F 1 EF 1 00:22:14
23 1188 GOURMET François M 22 SE 7 00:22:15
24 1239 CECI Armando M 23 V1 4 00:22:25
25 1125 HAESAERT Ronny M 24 V2 1 00:22:28
26 1095 VANNESPENNE Elea F 2 EF 2 00:22:41
27 1138 CECI Gianni M 25 EG 13 00:23:12
28 1190 CHAINEUX Geraldine F 3 DA 1 00:23:18
29 1170 THIRY Arnaud M 26 SE 8 00:23:28
30 1210 MODAERT Robin M 27 EG 14 00:23:42
31 1016 DELCHEF Marc M 28 V2 2 00:23:43
32 1001 ANKRI Jeremie M 29 SE 9 00:23:57
33 1176 MAHAUSE Gilles M 30 EG 15 00:24:05
34 1077 SERET Sylvain M 31 EG 16 00:24:13
35 1179 LEROY Louis M 32 EG 17 00:24:23
36 1187 CREMA Laurent M 33 EG 18 00:24:38
37 1111 SUIJKERBUIJK Stephane M 34 SE 10 00:24:39
38 1108 DEFRAINE Frederic M 35 V1 5 00:24:44
39 1081 THIRY Véronique F 4 DA 2 00:24:53
40 1255 HANSOUL Marc M 36 SE 11 00:25:05
41 1010 BYNENS Nicolas M 37 V3 1 00:25:22
42 1236 HARDY Benoit M 38 SE 12 00:25:25
43 1121 HARDY Julien M 39 EG 19 00:25:32
44 1234 MOUTI Yaniss M 40 EG 20 00:25:44
45 1005 BASTIDE Corine F 5 A1 1 00:25:45
46 1160 DOCQUIER Boris M 41 SE 13 00:25:48
47 1032 JOUANT Alric M 42 EG 21 00:25:52
48 1020 DELVENNE Emerie F 6 DA 3 00:25:54
49 1027 DUBUC Cédric M 43 SE 14 00:25:55
50 1242 GIELEN Pierre M 44 SE 15 00:25:55
51 1155 LAMATTINA Thomas M 45 EG 22 00:25:56
52 1052 MEYLEMANS Marie F 7 DA 4 00:26:00
53 1015 DAMAN Hélène F 8 EF 3 00:26:02
54 1238 COLLIGNON Frederic M 46 SE 16 00:26:03
55 1225 BALCAEN Yannick F 9 A2 1 00:26:05
56 1049 MEYLEMANS Caprice F 10 EF 4 00:26:06
57 1203 DARMONT Theo M 47 EG 23 00:26:07
58 1047 MAURISSEN Anna F 11 EF 5 00:26:07
59 1053 MEYLEMANS Nathan M 48 EG 24 00:26:12
60 1115 VERLAINE Martin M 49 SE 17 00:26:18
61 1184 LEGROS Damien M 50 SE 18 00:26:22
62 1139 LAMBERT Vincianne F 12 A1 2 00:26:32
63 1228 WERA Laurent M 51 SE 19 00:26:40
64 1260 BOXUS Marie-Agnès F 13 DA 5 00:26:47
65 1201 DEWITTE Christine F 14 DA 6 00:26:47
66 1059 PIETERS Nathalie F 15 A1 3 00:26:53
67 1156 COLLARD Cindy F 16 DA 7 00:27:01
68 1230 ROGISTER Florence F 17 DA 8 00:27:08
69 1068 ROME Thierry M 52 V1 6 00:27:12
70 1046 LUTS Kathy F 18 A1 4 00:27:15
71 1166 TEVEL Virginie F 19 DA 9 00:27:17
72 1158 LAMATTINA Lucas M 53 EG 25 00:27:21
73 1157 LAMATTINA Vincent M 54 SE 20 00:27:22
74 1229 PAQUET Océane F 20 DA 10 00:27:23
75 1129 GODBILLE Samuel M 55 SE 21 00:27:35
76 1136 LIMBIOUL Marie F 21 EF 6 00:27:42
77 1061 PIRON Grégory M 56 SE 22 00:27:50
78 1207 DORMAL Nicolas M 57 EG 26 00:27:52
79 1169 THIRY Alicia F 22 EF 7 00:27:54
80 1051 MEYLEMANS Joseph M 58 V3 2 00:28:03
81 1104 CLOSE Eric M 59 V1 7 00:28:05
82 1189 DUPONT Robert M 60 V2 3 00:28:15
83 1128 BLANDIN Didier M 61 V1 8 00:28:26
84 1086 VANDERMEULEN Daniel M 62 V2 4 00:28:28
85 1153 ROUSSELLE Nicolas M 63 SE 23 00:28:35
86 1186 VAN HECKE Natan M 64 EG 27 00:28:38
87 1084 VAN DE WIJNGAERT Lucien M 65 SE 24 00:28:39
88 1252 ROBERT Isaac M 66 EG 28 00:28:48
89 1265 DE GRONCKEL David M 67 SE 25 00:28:58
90 1057 PERRONE Barbara F 23 A1 5 00:29:09
91 1060 PIRET Emilie F 24 DA 11 00:29:10
92 1026 DESADELEER Jean-François M 68 V1 9 00:29:10
93 1144 VANDERSMISSEN Christel F 25 A1 6 00:29:11
94 1088 WEERTZ Raphael M 69 V2 5 00:29:15
95 1034 KABWE Jeanne F 26 A1 7 00:29:21
96 1114 HERMAN Marine F 27 EF 8 00:29:29
97 1253 DAWANCE Marie F 28 DA 12 00:29:37
98 1172 THIRY Ciara F 29 EF 9 00:29:38
99 1251 PAULY Tom M 70 EG 29 00:29:41
100 1224 MOES Stéphanie F 30 DA 13 00:29:43
101 1024 DEPRETER Axelle F 31 DA 14 00:29:46
102 1223 HOEBREGHTS Natacha F 32 DA 15 00:29:50
103 1112 AMBROSI Françoise F 33 A1 8 00:29:58
104 1135 MOMIN Anne F 34 A1 9 00:30:06
105 1250 URBAIN Pascale F 35 A1 10 00:30:09
106 1185 PAES Ludovic M 71 SE 26 00:30:11
107 1130 LECOQ Catherine F 36 A1 11 00:30:13
108 1064 PRENTEN Claudette F 37 A2 2 00:30:18
109 1048 MAURISSEN Nina F 38 EF 10 00:30:23
110 1178 LEROY Antoine M 72 EG 30 00:30:23
111 1208 DORMAL Chloé F 39 EF 11 00:30:25
112 1183 DARIMONT Marie-Anne F 40 A1 12 00:30:25
113 1173 BOUILLON Michel M 73 V2 6 00:30:35
114 1175 HAVET Lucienne F 41 A2 3 00:30:37
115 1240 MUCIG Béatrice F 42 A2 4 00:30:43
116 1244 NATALIS Fanny F 43 DA 16 00:30:53
117 1241 RIZZO Damien M 74 SE 27 00:30:53
118 1146 ILALLET Dominique F 44 A2 5 00:30:54
119 1180 LEROY Nico M 75 SE 28 00:30:58
120 1018 DELCOUR Christelle F 45 DA 17 00:31:01
121 1237 CATTIAUX Isabelle F 46 DA 18 00:31:09
122 1042 LEJEUNE Bryan M 76 EG 31 00:31:10
123 1124 MORTELE Marc M 77 V1 10 00:31:14
124 1198 DASSY Mélanie F 47 A1 13 00:31:19
125 1045 LUSSARDI Anne F 48 DA 19 00:31:29
126 1192 FERONT Delphine F 49 A1 14 00:31:41
127 1182 WATEN Nathanaël M 78 SE 29 00:31:41
128 1008 BOURGUIGNON Sophie F 50 DA 20 00:31:42
129 1214 COLLIN Louis M 79 V1 11 00:31:43
130 1007 BOLLY Eric M 80 V1 12 00:31:46
131 1161 FRANSOLET Rachel F 51 A1 15 00:32:02
132 1226 HONNAY Celine F 52 DA 21 00:32:03
133 1004 BARAKA Nourd M 81 V1 13 00:32:20
134 1205 ROMAN Dominique F 53 A2 6 00:32:24
135 1216 JANSSEN Laurena F 54 EF 12 00:32:24
136 1213 BUDDENBRUCK Randy M 82 SE 30 00:32:25
137 1080 THIRY Alain M 83 V2 7 00:32:26
138 1075 SEBA Philippe M 84 V1 14 00:32:29
139 1140 ABRAHAM Julia F 55 EF 13 00:32:30
140 1082 TRENTIN Christel F 56 DA 22 00:32:36
141 1029 GODFROID Patricia F 57 A2 7 00:32:36
142 1107 VANPETEGHEM Annie F 58 A2 8 00:32:37
143 1106 GOFFART Nicolas M 85 SE 31 00:32:40
144 1119 VERLAINE Florence F 59 DA 23 00:32:41
145 1215 MARECHAL Fabian M 86 SE 32 00:32:43
146 1261 DAGNE Anne F 60 A1 16 00:32:56
147 1174 LIOTA Antoine M 87 V3 3 00:32:57
148 1268 DERWA Steve M 88 EG 32 00:33:09
149 1072 ROUARD Lauriane F 61 DA 24 00:33:10
150 1247 DEVOS Jean-Paul M 89 V2 8 00:33:11
151 1091 KESTELYN Etienne M 90 V4 1 00:33:14
152 1097 VERLAINE Catherine F 62 A2 9 00:33:16
153 1248 MULIER Serge M 91 V2 9 00:33:17
154 1131 EERTMANS Celke F 63 A1 17 00:33:24
155 1219 KRIESCHER Eva F 64 EF 14 00:33:26
156 1126 HAESAERT Lien F 65 A2 10 00:33:54
157 1120 PAUWELS Luc M 92 V1 15 00:33:59
158 1133 BURLET Véronique F 66 A1 18 00:34:05
159 1132 THIOUX Patrice M 93 V2 10 00:34:05
160 1070 ROUARD Cedric M 94 SE 33 00:34:06
161 1269 LORENT Amandine F 67 DA 25 00:34:07
162 1264 FRANCOIS Isabelle F 68 A2 11 00:34:07
163 1063 POTTEAU Sandrine F 69 A1 19 00:34:08
164 1142 VANDERSMISSEN Robin M 95 EG 33 00:34:19
165 1217 JANSSEN Maelle F 70 EF 15 00:34:22
166 1246 SCHMETZ Joelle F 71 A2 12 00:34:30
167 1023 DEPRESSEUX Muriel F 72 DA 26 00:34:33
168 1177 BERNARD Carine F 73 A2 13 00:34:55
169 1033 JOUANT Cedric M 96 V1 16 00:34:57
170 1231 MOUTI Lina F 74 EF 16 00:35:04
171 1014 COUNSON Philippe M 97 V2 11 00:35:08
172 1043 LEVARLET Myriam F 75 A2 14 00:35:08
173 1066 REYNAERTS Monique F 76 A2 15 00:35:15
174 1074 SCHOUMACKER Marina F 77 A1 20 00:35:15
175 1249 FRANQUET Steve M 98 SE 34 00:35:30
176 1152 ROUSSELLE Vicky F 78 DA 27 00:35:30
177 1030 IAFFALDANO Silvia F 79 DA 28 00:35:32
178 1165 DIEUDONNÉ Catherine F 80 DA 29 00:35:34
179 1089 WILKIN Marilyn F 81 A2 16 00:35:36
180 1006 BENCHIKH Dania F 82 A2 17 00:35:40
181 1028 FOSSION Geneviève F 83 A2 18 00:35:48
182 1094 BALTUS Perrine F 84 DA 30 00:35:52
183 1093 BALTUS Hortense F 85 EF 17 00:35:52
184 1134 BAUCAMP Maureen F 86 EF 18 00:36:13
185 1044 LIPPE-VIGNATI Joelle F 87 A2 19 00:36:21
186 1150 COLLIGNON Robert M 99 V4 2 00:36:22
187 1003 ANTONELLI Valentina F 88 DA 31 00:37:06
188 1193 COLETTE Beatrice F 89 A2 20 00:37:12
189 1194 WILLEMS Ingrid F 90 A1 21 00:37:13
190 1200 BACCUS Christelle F 91 A1 22 00:37:15
191 1143 VANDERSMISSEN Fabrice M 100 V1 17 00:37:39
192 1257 DELCOUR Sarah F 92 DA 32 00:37:53
193 1162 RAUCY Elise F 93 DA 33 00:37:56
194 1259 DELCOUR Alain M 101 V2 12 00:37:58
195 1145 FORTEMPS Mireille F 94 A2 21 00:38:34
196 1221 SCHNAKERS Marie F 95 DA 34 00:38:37
197 1105 CLOSE Lucie F 96 EF 19 00:38:48
198 1209 MODAERT Bastien M 102 EG 34 00:38:56
199 1262 RODRIGUEZ DIAZ Senen M 103 V1 18 00:39:10
200 1123 DESSART Laurence F 97 A1 23 00:39:10
201 1164 BRICHAU Corinne F 98 A1 24 00:39:10
202 1019 DELVAUX Anne-Pascale F 99 A1 25 00:39:11
203 1040 LARUELLE Regine F 100 DA 35 00:39:11
204 1065 QUERSON Frederique F 101 A1 26 00:39:12
205 1266 PIROTTE Rachel F 102 DA 36 00:39:35
206 1267 SUELETTE Christopher M 104 SE 35 00:39:37
207 1233 STRUZIK Delphine F 103 DA 37 00:39:39
208 1127 GRENSON Geneviève F 104 A1 27 00:39:59
209 1090 WILLEMS Christelle F 105 DA 38 00:40:16
210 1235 RACOUX Danièle F 106 A2 22 00:40:35
211 1011 CIROLLI Silvana F 107 A1 28 00:41:18
212 1151 GISBRAND Marie France F 108 A1 29 00:42:13
213 1258 DELCOUR Natacha F 109 DA 39 00:45:27
214 1039 LADELFA Vanessa F 110 DA 40 00:45:32
215 1211 CLOUX Paul M 105 V1 19 00:48:41
10,9 km
Pl. Dos. Nom Prénom Sexe Pl./S. Cat. Pl./Cat. Temps
1 779 CHARLIER Julien M 1 SE 1 00:39:06
2 791 VRANCKEN Jo M 2 SE 2 00:40:28
3 1939 RICHARD Victor M 3 SE 3 00:40:46
4 793 CASTERMANS Christophe M 4 SE 4 00:40:52
5 755 PRENTEN Jonathan M 5 SE 5 00:41:14
6 837 MEUNIER Gerard M 6 V2 1 00:41:14
7 765 CORBUSIER Philippe M 7 V1 1 00:41:33
8 1937 LOPEZ-T Didier M 8 V1 2 00:41:47
9 732 VRANCKEN Marc M 9 V2 2 00:42:03
10 526 CHATELUS Sébastien M 10 SE 6 00:42:16
11 564 DEFECHEREUX Pascal M 11 SE 7 00:42:32
12 670 MINY Olivier M 12 SE 8 00:42:46
13 748 LEDUC Robin M 13 SE 9 00:42:50
14 847 DEFRENE Christian M 14 V1 3 00:42:52
15 858 DEBRA Daniel M 15 V1 4 00:43:04
16 754 DEFAWES Cédric M 16 SE 10 00:43:30
17 586 ESTEBEZ André M 17 V1 5 00:43:41
18 566 DEGRAVE Daniel M 18 V2 3 00:43:41
19 983 EL KADERI Ahmed M 19 SE 11 00:43:59
20 1884 MONIOTTE Gilles-Antoine M 20 V1 6 00:44:12
21 527 CHRISTODOULEAS Patrick M 21 V2 4 00:44:16
22 555 D'AVELINO Michael M 22 V1 7 00:44:22
23 735 LETE Loic M 23 SE 12 00:44:52
24 724 VANDERSTRAETEN Thomas M 24 SE 13 00:44:58
25 833 THIRION Jean-François M 25 V2 5 00:45:22
26 614 HEMMER Olivier M 26 V1 8 00:45:33
27 743 ALEXANDRE Philippe M 27 SE 14 00:45:42
28 528 CHUDYBA Jean-Marie M 28 V1 9 00:45:47
29 1330 CORIN Didier M 29 V1 10 00:45:48
30 894 COUNE Benoît M 30 V1 11 00:45:49
31 1923 ANCION Gilles M 31 SE 15 00:45:51
32 655 MABILLE Georges M 32 V2 6 00:45:57
33 1880 BOSMANS Eric M 33 V2 7 00:46:00
34 606 HACHA Jonathan M 34 SE 16 00:46:03
35 678 OHN Christophe M 35 V1 12 00:46:05
36 1847 MARECHAL Arnaud M 36 SE 17 00:46:11
37 1628 DESQUILBET Maximilien M 37 SE 18 00:46:12
38 565 DEGRANGE Bernard M 38 V2 8 00:46:15
39 1905 MATTERN Berti M 39 SE 19 00:46:16
40 831 VAILLANT Sebastien M 40 SE 20 00:46:25
41 1894 DU BOIL D'ENGHIEN Grégory M 41 SE 21 00:46:36
42 1916 THINES Thomas M 42 SE 22 00:46:38
43 792 VANDERBEUKEN Stijn M 43 SE 23 00:46:42
44 957 DE MEERSMAN Thibaut M 44 SE 24 00:46:59
45 541 CREMER Patrick M 45 V2 9 00:47:05
46 1807 DEWALLEF Pascal M 46 V1 13 00:47:14
47 995 RABENDZKI Roman M 47 SE 25 00:47:14
48 801 DIPEDE Dominique M 48 SE 26 00:47:14
49 1000 COPPIN Frank M 49 V1 14 00:47:17
50 911 RIHON Paul M 50 V2 10 00:47:20
51 886 ITTUU Ash M 51 SE 27 00:47:23
52 860 DEWIT Christophe M 52 V1 15 00:47:31
53 896 PETIT Pascal M 53 V1 16 00:47:34
54 521 BRONKART Benoît M 54 SE 28 00:47:34
55 535 CORSWAREM Pierre-Henri M 55 SE 29 00:47:34
56 568 DELBOVIER Didier M 56 V1 17 00:47:39
57 667 MEYLEMANS Christophe M 57 SE 30 00:47:45
58 764 BECK Geoffrey M 58 V1 18 00:47:51
59 510 BENICHOUX Alex M 59 V1 19 00:47:55
60 763 FRERE Gilles M 60 V1 20 00:48:06
61 1851 BASTIN Thierry M 61 V1 21 00:48:18
62 1627 LENAERTS Marc M 62 V2 11 00:48:23
63 844 DREZE Jean-Michel M 63 V2 12 00:48:26
64 771 VAN HOOF Eddy M 64 V2 13 00:48:28
65 505 BAECKELANDT Marcel M 65 V2 14 00:48:30
66 719 THOMASSIN Thibaut M 66 SE 31 00:48:37
67 523 CADET Serge M 67 V1 22 00:48:51
68 897 BROECKX Philippe M 68 V1 23 00:48:54
69 563 DECOSTER Francis M 69 V2 15 00:48:56
70 912 ENGLEBERT Antoine M 70 SE 32 00:48:59
71 762 VAN LANGEVELD Roger M 71 V2 16 00:49:00
72 832 GILLET Serge M 72 V2 17 00:49:02
73 861 BORGS Michel M 73 V1 24 00:49:04
74 727 VENERUCCI Giuseppe M 74 V1 25 00:49:07
75 737 ONANO Patrizio M 75 V1 26 00:49:10
76 513 BIELEN Michel M 76 V2 18 00:49:14
77 1822 BIRTLES Cymon M 77 V1 27 00:49:18
78 1920 BAILLY Luc M 78 V1 28 00:49:21
79 1885 THEUNISSEN Luc M 79 SE 33 00:49:27
80 866 FREDERICH Dominique F 1 A1 1 00:49:28
81 749 DELOGE Jean-François M 80 SE 34 00:49:31
82 928 JAUMOTTE Laurent M 81 V1 29 00:49:33
83 916 HENRY Josué M 82 V2 19 00:49:34
84 1833 CORSO Dino M 83 SE 35 00:49:40
85 1804 MONIOTTE Gabriel M 84 V1 30 00:49:46
86 895 BARON Jean M 85 SE 36 00:49:48
87 950 SERVAIS Thomas M 86 EG 1 00:49:52
88 869 LEUNEN Christophe M 87 SE 37 00:49:56
89 598 GHEURY Philippe M 88 V1 31 00:49:58
90 909 THIRION Alain M 89 V1 32 00:50:01
91 734 XHROUET Alain M 90 V1 33 00:50:04
92 741 LENNES Pierre M 91 V2 20 00:50:05
93 770 LENAERTS Luc M 92 V2 21 00:50:08
94 948 PILLITTERI Carmelo M 93 V1 34 00:50:09
95 690 PIRLET Yves M 94 V2 22 00:50:12
96 573 DENDAL Didier M 95 V2 23 00:50:15
97 932 HEUSSCHEN Dominique M 96 V2 24 00:50:17
98 864 DAVID Jacky M 97 V1 35 00:50:22
99 925 BOUMAL Jean-Marc M 98 V1 36 00:50:24
100 938 DE LUCA Dino M 99 V1 37 00:50:27
101 506 BAUMANS Benoit M 100 V1 38 00:50:28
102 587 FADISTA Rafael M 101 V1 39 00:50:30
103 1915 TORFS Stijn M 102 SE 38 00:50:37
104 644 LEMMENS Christophe M 103 V1 40 00:50:39
105 838 HANOTIAUX Eric M 104 V2 25 00:50:39
106 826 SCKEVEE Patrick M 105 V1 41 00:50:42
107 1886 DARROS Laurent M 106 SE 39 00:50:47
108 662 MARTIN Eric M 107 V2 26 00:50:55
109 951 SERVAIS Vincent M 108 V1 42 00:50:55
110 745 RASKINET Renaud M 109 V1 43 00:51:01
111 640 LECLERE Sébastien M 110 SE 40 00:51:11
112 716 THEATE Françoise F 2 A2 1 00:51:18
113 1900 SEVRIN Frederic M 111 SE 41 00:51:19
114 1870 DEGRAVE Jonathan M 112 SE 42 00:51:20
115 1333 BOURSEAU Bertrand M 113 SE 43 00:51:22
116 624 JACOBS Teddy M 114 EG 2 00:51:23
117 1922 TASSET Christophe M 115 SE 44 00:51:24
118 1346 PIER Jacques M 116 V1 44 00:51:25
119 1577 BOUVEROUX Emmanuel M 117 V2 27 00:51:25
120 1876 GERMEAU Beatrice F 3 DA 1 00:51:35
121 758 LUCAS Christophe M 118 SE 45 00:51:53
122 581 DOR Alexis M 119 SE 46 00:51:54
123 669 MICHELIS François M 120 SE 47 00:51:58
124 789 AMAND Ludocic M 121 SE 48 00:52:03
125 769 BOVAEZZA Yuussef M 122 V1 45 00:52:03
126 1925 JASPAR Steve M 123 SE 49 00:52:07
127 623 JACOBS Fabien M 124 V1 46 00:52:08
128 694 PIROTTE Armand M 125 V3 1 00:52:14
129 1331 ADANT PY M 126 HC 1 00:52:14
130 1873 KLINGLER Geoffrey M 127 SE 50 00:52:15
131 981 JOWA Pierre M 128 V2 28 00:52:17
132 744 TOPALBEGOVIC Ajla F 4 DA 2 00:52:20
133 1334 DAVID Thierry M 129 V2 29 00:52:26
134 888 JHONNY Banane M 130 SE 51 00:52:26
135 1924 BLAISE Pierre M 131 SE 52 00:52:27
136 668 MEYLEMANS Frédéric M 132 SE 53 00:52:32
137 804 HEPTIA Noel M 133 V3 2 00:52:32
138 993 ROBERT Gaelic M 134 V1 47 00:52:34
139 868 KRICFALUSI Michel M 135 V1 48 00:52:35
140 693 PIRON André M 136 V3 3 00:52:38
141 1343 SMEYSTERS Benoit M 137 SE 54 00:52:40
142 1938 SAM Christian M 138 V1 49 00:52:41
143 691 PIRO Calogero M 139 V3 4 00:52:47
144 551 DAMAN François M 140 V1 50 00:52:47
145 530 CLAES Didier M 141 V1 51 00:52:52
146 907 VAN CAUWENBERGE Pierre M 142 SE 55 00:52:53
147 891 PHILIPPAT Fabian M 143 V1 52 00:53:03
148 558 DE MARCHIN Guillaume M 144 SE 56 00:53:07
149 1933 MEURICE Jeson M 145 SE 57 00:53:08
150 1888 WÉRY Sébastien M 146 SE 58 00:53:12
151 725 VANHALLE Rudy M 147 V2 30 00:53:14
152 516 BONA Guy M 148 V3 5 00:53:14
153 1840 RAEYMAEKERS Chantal F 5 A1 2 00:53:15
154 1857 FORAMITTI Laurent M 149 V1 53 00:53:17
155 1890 DE HARLEZ Gamien M 150 SE 59 00:53:18
156 761 MOTTIN Marc M 151 V2 31 00:53:20
157 870 DE MARCHI Nico M 152 V2 32 00:53:22
158 880 FRAIKIN Jason M 153 SE 60 00:53:25
159 930 DEMONCEAU Henri M 154 V2 33 00:53:27
160 931 HEURSALEN Christine F 6 A1 3 00:53:27
161 609 HANQUET Yves M 155 V1 54 00:53:31
162 1806 BONHEMME Laurence F 7 A1 4 00:53:33
163 616 HOBIN Olivier M 156 V2 34 00:53:34
164 736 LISIK Nathalie F 8 A1 5 00:53:34
165 878 BUTTIENS Olivier M 157 SE 61 00:53:36
166 843 MATERNE Pierre M 158 V2 35 00:53:37
167 816 MARTHOZ Damien M 159 V1 55 00:53:46
168 1883 WISER Pierre M 160 SE 62 00:53:47
169 945 COOREMANS Guy M 161 V1 56 00:53:50
170 874 TORDOIR Eric M 162 V2 36 00:53:50
171 1810 REYNERTZ Pierre M 163 V1 57 00:53:53
172 1936 BODART Pierre M 164 V1 58 00:53:55
173 1913 DELVENNE Adrien M 165 SE 63 00:53:58
174 1336 ZANGHELLINI Claudio M 166 V2 37 00:54:14
175 561 DECKERS Jean-Louis M 167 V1 59 00:54:17
176 790 VANDORMAEL Christophe M 168 V1 60 00:54:22
177 933 SYNE Alain M 169 V2 38 00:54:24
178 711 SIGNORINO Lillo M 170 V1 61 00:54:27
179 812 MERCIER Catherine F 9 DA 3 00:54:28
180 977 BERTHOLET Philippe M 171 V1 62 00:54:38
181 973 JOSSE Noel M 172 V2 39 00:54:40
182 959 LOVINFOSSE Jennifer F 10 DA 4 00:54:45
183 756 MARINO Giovanni M 173 V1 63 00:54:50
184 1848 LEJEUNE Patrick M 174 V1 64 00:54:57
185 532 CLOSE Dominique M 175 V2 40 00:54:58
186 1849 LEJEUNE Benjamin M 176 SE 64 00:54:58
187 917 ALKEN Laurent M 177 SE 65 00:54:59
188 588 FAFCHAMPS Eudore M 178 V2 41 00:55:03
189 596 GERARD Christophe M 179 SE 66 00:55:08
190 850 LEGLISE Jeremy M 180 SE 67 00:55:11
191 964 ROTELLA Danilo M 181 V1 65 00:55:18
192 867 LECLERCQ Sabrina F 11 DA 5 00:55:21
193 920 LIBOTTE Virginie F 12 DA 6 00:55:22
194 918 RAUW Olivier M 182 V1 66 00:55:24
195 1921 VAN HAM David M 183 SE 68 00:55:27
196 848 TAMAGNINI Massimo M 184 V2 42 00:55:28
197 739 VAN HESPEN Benoit M 185 V1 67 00:55:36
198 618 HOYOIS Patrick M 186 V2 43 00:55:40
199 842 WERA Bertrand M 187 V1 68 00:55:41
200 901 LAROCK Guy M 188 V2 44 00:55:42
201 778 LISMONT Marjorie F 13 DA 7 00:55:48
202 746 RADDOUX Hugo M 189 V2 45 00:55:57
203 946 LORENT Michel M 190 V1 69 00:55:58
204 1521 LAPRELE Michel M 191 V1 70 00:56:03
205 827 FRERE Gerald M 192 V1 71 00:56:06
206 871 FRAITURE Gilles M 193 SE 69 00:56:13
207 825 D'OVIDIO Raphael M 194 SE 70 00:56:14
208 914 BUNTINX Jérome M 195 V1 72 00:56:15
209 1909 MANCINI Michel M 196 V3 6 00:56:26
210 1809 MARCELLI Soliman M 197 SE 71 00:56:28
211 683 PAULUS Jean-Louis M 198 V2 46 00:56:31
212 1904 MOONEN Renaud M 199 V1 73 00:56:32
213 1821 DELVIGNE Jean-François M 200 SE 72 00:56:35
214 923 BERTRAND Patrick M 201 V1 74 00:56:37
215 1341 FORCONI Patrick M 202 V2 47 00:56:37
216 1871 HENSGENS Jan M 203 V3 7 00:56:38
217 982 EVERS Anne-Christine F 14 DA 8 00:56:39
218 887 TIGER Rachet M 204 SE 73 00:56:40
219 953 JOURDAN Jean-Marc M 205 V1 75 00:56:41
220 1934 NEEFS Bert M 206 V2 48 00:56:43
221 1854 HAUTEKEER Jean-Paul M 207 V1 76 00:56:45
222 604 GRZESINSKI Bernard M 208 V2 49 00:56:47
223 776 VANHAEREN Patrick M 209 V2 50 00:56:49
224 1918 LOPEZ Celso M 210 V2 51 00:56:50
225 889 ROISEUX Olivier M 211 SE 74 00:56:51
226 759 GUILMAIN Jérome M 212 SE 75 00:56:53
227 1845 BINDELLE Thomas M 213 SE 76 00:56:53
228 1345 PIRON Fabrice M 214 V1 77 00:56:56
229 840 NOLEVAUX Frederic M 215 V1 78 00:56:56
230 865 DE SIMONE Salvatore M 216 V3 8 00:56:59
231 742 CICCARESE Thomas M 217 SE 77 00:56:59
232 987 LOUIS Benoît M 218 V1 79 00:56:59
233 965 JAMIN Dominique M 219 SE 78 00:57:01
234 829 CASTELLANO Jose M 220 V1 80 00:57:02
235 1347 BATTISTINI Luciano M 221 V2 52 00:57:04
236 747 CULOT Christian M 222 V1 81 00:57:06
237 1859 MOSTINCKX Nicolas M 223 SE 79 00:57:06
238 569 DELCOUR Jean-François M 224 SE 80 00:57:10
239 924 DEQUIEDT Franck M 225 V1 82 00:57:15
240 1903 FERNANDEZ Bernard M 226 V1 83 00:57:16
241 672 MORALES LEDESMA Antonio M 227 V1 84 00:57:18
242 806 VANASCHEN Vincent M 228 V1 85 00:57:20
243 773 BRÈNE Yves M 229 V1 86 00:57:22
244 994 DOSSARD N994 X 1 V4 1 00:57:22
245 651 LIOTA Calogero M 230 SE 81 00:57:25
246 1788 NEVEN Alexis M 231 V1 87 00:57:28
247 635 LANGE Fabien M 232 SE 82 00:57:29
248 1914 VAN OS Danièle F 15 DA 9 00:57:30
249 576 DETRIXHE Christophe M 233 SE 83 00:57:48
250 908 LEMESTREZ Pierre-Yves M 234 SE 84 00:57:49
251 872 AMORMINO Eric M 235 V1 88 00:57:52
252 642 LEGROS Bernard M 236 V1 89 00:57:54
253 997 MONTEFORTE Alexandre M 237 SE 85 00:57:55
254 979 WILLEMS Frederic M 238 V1 90 00:57:55
255 512 BERGER Marine F 16 DA 10 00:57:56
256 1836 PRIJOT Patrick M 239 V1 91 00:58:30
257 972 BLAISE Jean-Luc M 240 V1 92 00:58:33
258 890 RASSART Eric M 241 V2 53 00:58:34
259 602 GOTTARDI Michael M 242 SE 86 00:58:35
260 545 CURTO Laurent M 243 SE 87 00:58:35
261 671 MODAVE Loïc M 244 EG 3 00:58:38
262 1891 DE HARLEZ Stéphanie F 17 DA 11 00:58:38
263 721 TOURNEUR Axel M 245 SE 88 00:58:38
264 960 JAMAR Bernard M 246 V2 54 00:58:39
265 1861 DELCHAMBRE Jean-Marc M 247 SE 89 00:58:42
266 567 DEGROOT Jean M 248 V3 9 00:58:47
267 713 SKEVEE Christian M 249 V1 93 00:58:47
268 1881 MARECHAL Sophie F 18 DA 12 00:58:48
269 548 CUTAIA Alexandre M 250 SE 90 00:58:57
270 1616 MEEKERS Stefan M 251 V1 94 00:58:57
271 674 MUNAUT Carine F 19 A2 2 00:59:02
272 619 HUMBLET Philippe M 252 SE 91 00:59:03
273 968 SANTAROSSA Silvio M 253 V1 95 00:59:03
274 729 VOLPE Monica F 20 A2 3 00:59:05
275 1902 KUNPEN Marie-Laure F 21 DA 13 00:59:10
276 740 CULOT Jean-Yves M 254 V1 96 00:59:12
277 1344 DOR Rene M 255 V1 97 00:59:14
278 882 GYEN Michaël M 256 SE 92 00:59:19
279 955 LANGE Jean-Lou M 257 V2 55 00:59:19
280 1843 RULKIN Vincent M 258 V1 98 00:59:21
281 738 AVERNO Fabrice M 259 SE 93 00:59:21
282 942 DARMONT Pierre M 260 V1 99 00:59:22
283 810 MAHAUX Philippe M 261 V1 100 00:59:26
284 658 MAISSIN Jean-Pierre M 262 V2 56 00:59:27
285 991 VAN BUYLAERE Gaëlle F 22 A1 6 00:59:28
286 999 DIANA Nicolas M 263 V1 101 00:59:30
287 1878 DUMORTIER Thomas M 264 SE 94 00:59:30
288 922 GALLOPPA Sandro M 265 V2 57 00:59:32
289 828 SEGUIDO ALVAREZ Francisco M 266 SE 95 00:59:32
290 902 BEAUJEAN Valerie F 23 DA 14 00:59:38
291 813 STICCA Nicola M 267 V1 102 00:59:46
292 1319 MORANA Edouard M 268 V1 103 00:59:51
293 653 LUCAS Pierre M 269 V2 58 00:59:52
294 547 CUSTERS Michel M 270 V2 59 00:59:55
295 593 GADEA Ramon M 271 V3 10 00:59:55
296 608 HADJIDIMITRIOU Stelio M 272 V2 60 00:59:55
297 803 KEMPINAIRE Patricia F 24 DA 15 00:59:56
298 1839 NONDONFAZ Geneviève F 25 A2 4 01:00:02
299 594 GASPAR Derek M 273 SE 96 01:00:06
300 628 KELLES Steve M 274 SE 97 01:00:07
301 579 DIET Fabrice M 275 V1 104 01:00:07
302 648 LEROY Victor M 276 SE 98 01:00:08
303 636 LARMINIER Claude M 277 V3 11 01:00:11
304 785 VIESLET Bernard M 278 V2 61 01:00:12
305 903 HANS Michel M 279 V1 105 01:00:13
306 685 PEREZ CAMPOS Juan-Carlos M 280 SE 99 01:00:17
307 1332 SALMON Alice F 26 HC 1 01:00:20
308 1329 JAMAR Julien M 281 HC 2 01:00:21
309 1816 BEELEN Daniel M 282 V1 106 01:00:25
310 1323 SENARD Marc M 283 V2 62 01:00:28
311 1899 RIGUELLE Eric M 284 V1 107 01:00:31
312 892 ALBERT Vincent M 285 V1 108 01:00:42
313 706 ROMOLO Antonio M 286 SE 100 01:00:43
314 998 MONTEFORTE Sebastien M 287 SE 101 01:00:44
315 1846 DELARBRE Nathalie F 27 DA 16 01:00:44
316 884 OTE Isabelle F 28 DA 17 01:00:46
317 992 BEINE Michel M 288 V1 109 01:00:50
318 760 LANGER Paul M 289 V3 12 01:00:52
319 1825 MULER Eric M 290 V2 63 01:00:54
320 883 LEBRUN Marielle F 29 DA 18 01:01:01
321 797 URBAIN Jean-Marc M 291 V1 110 01:01:04
322 757 REPPEN Nicolas M 292 V1 111 01:01:05
323 834 ONSSELS Jean-Claude M 293 V3 13 01:01:06
324 550 DALLA LONGA Laurence F 30 A1 7 01:01:07
325 1812 FAMEREE Emmanuel M 294 SE 102 01:01:09
326 954 LOUWETTE Marie-Céline F 31 A1 8 01:01:12
327 857 JOIRET Yvan M 295 V3 14 01:01:12
328 967 PICARD Christophe M 296 SE 103 01:01:15
329 702 RAONE Laetitia F 32 DA 19 01:01:23
330 814 BECK Sandrine F 33 DA 20 01:01:31
331 1842 DATTOLI Carlo M 297 V2 64 01:01:32
332 1874 DI FRANCESCO Andrea M 298 EG 4 01:01:36
333 855 KINET Serge M 299 V2 65 01:01:40
334 978 PAULY Jean-Pierre M 300 V1 112 01:01:43
335 961 NATALIS Laura F 34 DA 21 01:01:44
336 753 FRIEDRICH Jean-Luc M 301 V1 113 01:01:44
337 1844 STANKIEWICZ Olivier M 302 SE 104 01:01:47
338 796 LEGAZ Alain M 303 V2 66 01:01:48
339 601 GONZALEZ Vincent M 304 SE 105 01:02:04
340 815 LAPOULE Jean-Paul M 305 V1 114 01:02:07
341 1754 BRIEN Olivier M 306 V1 115 01:02:08
342 700 RAICKMAN Christophe M 307 V1 116 01:02:14
343 904 RORIVE Fred M 308 V1 117 01:02:15
344 680 OLIVIER Pascal M 309 V1 118 01:02:21
345 611 HANS Fabian M 310 SE 106 01:02:29
346 681 PAGANELLI Tiziana F 35 A1 9 01:02:34
347 1928 GIACHETTA Stephane M 311 SE 107 01:02:38
348 632 LAFORGE Frédéric M 312 SE 108 01:02:40
349 799 MOREL Dimitri M 313 SE 109 01:02:42
350 798 VALEPIN Kathleen F 36 A1 10 01:02:42
351 553 DAMAN Gilles M 314 EG 5 01:02:44
352 1864 MEIJNEN Denis M 315 SE 110 01:02:45
353 578 DI CESARE Stephane M 316 SE 111 01:02:47
354 1824 DETIFFE Cecile F 37 DA 22 01:02:50
355 1841 HENRARD Annick F 38 A1 11 01:02:50
356 975 ORIGER Nicolas M 317 SE 112 01:02:52
357 927 MUNOS Celine F 39 A1 12 01:02:52
358 1867 BYA Charles M 318 V1 119 01:02:57
359 1805 CALTABELLOTTA Carlo M 319 SE 113 01:02:58
360 1856 BRACKE Julie F 40 DA 23 01:03:01
361 1855 COLLIN Didier M 320 V1 120 01:03:01
362 934 JADIN Lucien M 321 V2 67 01:03:04
363 659 MANDREOLI William M 322 SE 114 01:03:04
364 819 BERT Ernest M 323 V2 68 01:03:06
365 1889 LINARD Colienne F 41 DA 24 01:03:11
366 666 MAYON Anne F 42 DA 25 01:03:13
367 974 SCHVARCZ Delphine F 43 DA 26 01:03:14
368 952 DORMAL Stéphane M 324 V1 121 01:03:16
369 849 HAUTPHENNE Eric M 325 V2 69 01:03:18
370 913 MODAERT Dimitry M 326 SE 115 01:03:25
371 805 HENCK Paul M 327 V2 70 01:03:27
372 786 KEIL Yves M 328 V1 122 01:03:28
373 885 ISTAZ José M 329 V2 71 01:03:31
374 787 MÉLON Luc M 330 V2 72 01:03:31
375 966 GARCIA Cyprien M 331 V1 123 01:03:33
376 873 LUNETTA Aldo M 332 V1 124 01:03:34
377 898 JOWAY Alain M 333 V2 73 01:03:49
378 603 GRIGNARD Gaël M 334 SE 116 01:03:52
379 852 BADIN Dirk M 335 SE 117 01:03:56
380 851 EMPAIN Daniel M 336 V1 125 01:03:56
381 820 STIERMON Josiane F 44 A2 5 01:03:59
382 980 DUBUFFET Eric M 337 V1 126 01:04:00
383 646 LEON Victor M 338 V2 74 01:04:02
384 595 GATHY Bruno M 339 SE 118 01:04:06
385 1852 MARECHAL Louis M 340 V2 75 01:04:06
386 663 MATAGNE Daniel M 341 V3 15 01:04:10
387 841 DIO Lillo M 342 SE 119 01:04:13
388 522 BROOKS Valentine F 45 A1 13 01:04:15
389 1935 LINSMEAN Frederic M 343 SE 120 01:04:17
390 617 HOUTAIN Jean-Paul M 344 V1 127 01:04:19
391 750 FRANCKART Didier M 345 V1 128 01:04:34
392 1321 DA SILVA Mario M 346 SE 121 01:04:35
393 969 DESTEXHE Olivier M 347 SE 122 01:04:41
394 733 WASSON André M 348 V1 129 01:04:41
395 519 BORSU Vincent M 349 SE 123 01:04:42
396 862 DUPLOUY Gerard M 350 V2 76 01:04:46
397 726 VANMEETEREN François M 351 SE 124 01:04:48
398 701 RAMACKERS Alain M 352 V2 77 01:04:51
399 661 MARIQUE Julien M 353 SE 125 01:04:57
400 949 MARQUES Filipe M 354 V1 130 01:05:03
401 915 MOUTI Zouhair M 355 V1 131 01:05:03
402 525 CAMPANELLA Francesca F 46 DA 27 01:05:04
403 1882 MARECHAL Julien M 356 SE 126 01:05:05
404 846 POTY Madison F 47 EF 1 01:05:12
405 990 JOIRIS Michel M 357 V3 16 01:05:13
406 845 POTY Francis M 358 V2 78 01:05:16
407 679 OLIVIER Marguerite F 48 A2 6 01:05:17
408 1853 LHEUREUX Ginette F 49 A2 7 01:05:18
409 824 CHARLER Michel M 359 V1 132 01:05:19
410 879 HUYSMANS Erik M 360 SE 127 01:05:20
411 939 JANSSENS Arlette F 50 A1 14 01:05:21
412 947 VANDEVOORDE Marie-Paule F 51 A2 8 01:05:22
413 782 WERA Stéphane M 361 SE 128 01:05:23
414 1826 MOES Dominique F 52 A1 15 01:05:24
415 1872 DI FRANCESCO Angelo M 362 V1 133 01:05:25
416 577 DEVILLERS Anne F 53 DA 28 01:05:26
417 730 VONDENHOFF Alain M 363 SE 129 01:05:29
418 875 QUOIBION Valentine F 54 DA 29 01:05:29
419 807 ROCETTE Benzé M 364 V2 79 01:05:29
420 876 COENEN Anne F 55 A1 16 01:05:30
421 877 FRANÇOIS Jean-Michel M 365 V1 134 01:05:30
422 677 NOTARNICOLA Christophe M 366 SE 130 01:05:31
423 919 DECHAMPS Jean M 367 V2 80 01:05:32
424 723 VANDERMISSEN Patricia F 56 A2 9 01:05:36
425 839 PRAVISANO Raphael M 368 SE 131 01:05:37
426 774 SCHERPENBERGHS Laurence F 57 DA 30 01:05:40
427 775 NOLEVAUX Dominique M 369 V1 135 01:05:41
428 703 RENARD Bernard M 370 V2 81 01:05:43
429 859 FOIDART John M 371 SE 132 01:05:44
430 559 DECHAMPS Henri M 372 V2 82 01:05:45
431 830 DORVAL Roland M 373 V2 83 01:05:46
432 821 ENGLEBERT Bernard M 374 V3 17 01:05:51
433 963 DEGRANGE Valérie F 58 DA 31 01:05:53
434 720 TOMBALLE Francis M 375 V1 136 01:05:55
435 944 MOREAU Anne F 59 A1 17 01:06:01
436 1906 PAQUES Nathalie F 60 A1 18 01:06:02
437 996 VANMECHELEN Johnny M 376 V2 84 01:06:02
438 958 ANZALONE Millie F 61 DA 32 01:06:02
439 605 GRZESINSKI Charlotte F 62 DA 33 01:06:04
440 802 SAUVEUR Mélissa F 63 DA 34 01:06:05
441 1875 LECLERCQ Nathalie F 64 A1 19 01:06:06
442 1325 MATHIEU Christophe M 377 SE 133 01:06:06
443 647 LEON FANJUL Laura F 65 DA 35 01:06:08
444 612 HARDY Kenny M 378 SE 134 01:06:14
445 780 WERA Florence F 66 A1 20 01:06:29
446 910 CREPIN Boris M 379 EG 6 01:06:35
447 941 FLORKIN Serge M 380 V2 85 01:06:41
448 549 D'ADAMIO David M 381 SE 135 01:06:43
449 1830 ROI Carine F 67 A1 21 01:06:49
450 1869 LEDOUX Aurélie F 68 DA 36 01:06:58
451 537 COUVREUR Esmeralda F 69 A2 10 01:07:01
452 1912 MERCENIER Maurice M 382 V2 86 01:07:02
453 893 SAGGIORATO Luigi M 383 V3 18 01:07:07
454 937 FABRY Richel M 384 V2 87 01:07:10
455 784 WILLOT Anne F 70 A2 11 01:07:18
456 971 DENUE Pierre M 385 V1 137 01:07:19
457 560 DECHAMPS Isabelle F 71 A1 22 01:07:26
458 962 VANMECHELEN Jimmy M 386 SE 136 01:07:31
459 822 KIRINCIC Pascale F 72 A1 23 01:07:36
460 542 CROSSET Bernadette F 73 DA 37 01:07:39
461 589 FASOL Anne F 74 A1 24 01:07:50
462 1897 CRUSHIN Daniel M 387 V1 138 01:07:50
463 585 ELOY Nathalie F 75 A2 12 01:07:57
464 863 CATEUL Benoit M 388 V1 139 01:08:01
465 817 DREYNE Arlette F 76 A2 13 01:08:14
466 1911 LENAERS Jacqueline F 77 A2 14 01:08:15
467 1932 PAQUOT Martine F 78 A1 25 01:08:21
468 544 CROTTEUX Gregory M 389 SE 137 01:08:23
469 970 CANELLA Giovanni M 390 SE 138 01:08:26
470 1879 PETREMENT Fabienne F 79 A1 26 01:08:28
471 571 DELVAUX Denis M 391 V1 140 01:08:34
472 1907 DENOËL Philippe M 392 V1 141 01:08:35
473 600 GONZALEZ Laurent M 393 SE 139 01:08:38
474 613 HEINEN Henri M 394 V4 1 01:08:39
475 731 VOS Michel M 395 V1 142 01:08:45
476 921 JANSSEN Joel M 396 V1 143 01:08:45
477 800 DEVOS Fabrice M 397 V1 144 01:08:53
478 715 STAES-POLET Sabine F 80 A2 15 01:08:55
479 539 CRANINX David M 398 SE 140 01:08:56
480 656 MAGUIN Patricia F 81 A1 27 01:08:56
481 1342 BAUDOT Christophe M 399 SE 141 01:09:11
482 504 AYDIN Mira F 82 DA 38 01:09:18
483 501 ABSIL Ludovic M 400 V1 145 01:09:25
484 1862 EPINOUX Jean-Yves M 401 V1 146 01:09:46
485 976 BRUGGEN Nicole F 83 A1 28 01:09:47
486 540 CRANINX Patrick M 402 V2 88 01:09:49
487 652 LOGIST Nathalie F 84 A1 29 01:09:53
488 1335 SAYLAMIS Mesut M 403 SE 142 01:10:05
489 823 TURRIONI Oriana F 85 A1 30 01:10:16
490 630 KHALEEFEH Nora F 86 DA 39 01:10:19
491 1919 LEIST Simon M 404 SE 143 01:10:21
492 899 CHAMPON Anne-Laure F 87 DA 40 01:10:25
493 639 LECLERCQ Muriel F 88 A1 31 01:10:31
494 620 ISTAS Véronique F 89 A1 32 01:10:38
495 1868 GENGOUX Valerie F 90 DA 41 01:10:42
496 1917 KWANTEN Luc M 405 V2 89 01:10:43
497 808 HERBOTS Jozef M 406 V4 2 01:10:47
498 1895 WERA Laurent M 407 V1 147 01:10:49
499 524 CALIFICE Richard M 408 SE 144 01:10:49
500 777 NICOLAY Anne-Marie F 91 A2 16 01:11:04
501 574 DEPOSSON Mireille F 92 A1 33 01:11:09
502 956 NOEL Eloi M 409 V1 148 01:11:11
503 1910 SCHERPENBERGS Philippe M 410 V2 90 01:11:11
504 1896 NOEL France F 93 DA 42 01:11:16
505 1324 VERLAINE Dominque M 411 V1 149 01:11:39
506 1322 ARNOULD Nathalie F 94 A1 34 01:11:40
507 722 VANDEKOKER Luc M 412 V2 91 01:11:40
508 853 HERCOT Marie-Astrid F 95 A2 17 01:12:00
509 562 DECKERS Ulrich M 413 SE 145 01:12:00
510 854 RUBINO Michel M 414 V2 92 01:12:02
511 584 DURELLO Geneviève F 96 DA 43 01:12:04
512 686 PETITJEAN Béatrice F 97 A2 18 01:12:04
513 591 FREBEL Fabrice M 415 V1 150 01:12:05
514 943 DEFRERE Noemie F 98 EF 2 01:12:06
515 1877 LEFLOT Amandine F 99 DA 44 01:12:08
516 534 CORNET Carine F 100 A1 35 01:12:09
517 1931 LAMBERT Myrian F 101 A2 19 01:12:09
518 515 BLONDIAU Catherine F 102 A1 36 01:12:13
519 940 BAETEN Annick F 103 A1 37 01:12:16
520 752 VERLAINE Jean-Pierre M 416 V1 151 01:12:18
521 1930 GAUTHIER Jean M 417 V3 19 01:12:22
522 935 DEVILLE Patricia F 104 A2 20 01:12:24
523 575 DETILLOUX Jayson M 418 EG 7 01:12:25
524 936 VANEETVELD Andy M 419 SE 146 01:12:25
525 900 MAERTENS Gaelle F 105 DA 45 01:12:36
526 689 PIETEUR Fabienne F 106 A1 38 01:12:38
527 633 LAMBRICHTS Christelle F 107 A1 39 01:12:39
528 650 LIBERT Yves M 420 V2 93 01:12:47
529 688 PHILIPKIN Francine F 108 A2 21 01:12:47
530 1865 ROLAND Jean-Claude M 421 V3 20 01:12:51
531 708 SAUCIN Nathalie F 109 DA 46 01:13:06
532 751 BOVEROUX Blanche M 422 V1 152 01:13:06
533 557 DAVID Anny F 110 A2 22 01:13:07
534 788 LOCIUTO Salvatore M 423 V2 94 01:13:07
535 687 PETITJEAN Rohnny M 424 V2 95 01:13:09
536 794 DILIBERTO Pina F 111 A1 40 01:13:10
537 631 KUPPER Roland M 425 SE 147 01:13:21
538 1929 MORO LAVADO Ambrosio M 426 V2 96 01:13:41
539 795 MOUREAU Caroline F 112 DA 47 01:14:27
540 986 WAUTHELET Cléa F 113 EF 3 01:14:28
541 507 BAUMANS Stéphanie F 114 DA 48 01:14:30
542 1892 VANDENDOOREN Rachel F 115 A1 41 01:14:31
543 1893 DANIELS Valérie F 116 DA 49 01:14:33
544 988 MATHIEUX Catherine F 117 A1 42 01:14:39
545 629 KEYEN Isabelle F 118 A1 43 01:14:54
546 518 BORRE Thierry M 427 V1 153 01:14:59
547 1350 GUSTIN Sabrina F 119 DA 50 01:15:04
548 1927 THYS Rachel F 120 DA 51 01:15:07
549 783 WERA Sissi F 121 DA 52 01:15:07
550 926 MELARD Michel M 428 V3 21 01:15:22
551 984 CHARLIER Véro F 122 A1 44 01:15:29
552 1813 HAVART Xavier M 429 V1 154 01:15:49
553 772 HUYNH-DUC Julie F 123 DA 53 01:15:51
554 1908 BERTHE Laure F 124 A2 23 01:15:53
555 1349 DEBOUNY Charlotte F 125 EF 4 01:16:33
556 1348 NSINGA Elodie F 126 DA 54 01:16:41
557 718 THIRY Stéphanie F 127 DA 55 01:16:47
558 572 DEMARET Audrey F 128 A1 45 01:16:49
559 1887 DARRAS Bénédicte F 129 DA 56 01:17:08
560 682 PARISSE Christian M 430 V1 155 01:17:16
561 502 ABSIL Manon F 130 EF 5 01:17:54
562 697 PUGLIESE Aurélie F 131 DA 57 01:17:55
563 627 JUPRELLE Anne-Claire F 132 A1 46 01:18:04
564 989 PEPIN Jean-Louis M 431 V2 97 01:18:04
565 665 MAURI Pascale F 133 A1 47 01:18:37
566 637 LECERF Amandine F 134 DA 58 01:19:21
567 781 DOTRIMONT Tamara F 135 DA 59 01:19:30
568 643 LEMAIRE Isabelle F 136 A2 24 01:21:02
569 710 SIGISMONDI Raffaele M 432 SE 148 01:22:39
570 714 SKIROLE Marie-Claire F 137 A2 25 01:22:44
571 570 DELCOURT Patricia F 138 A2 26 01:23:17
572 622 IUSSA Marie F 139 A2 27 01:24:55
573 626 JOSLET Celine F 140 A1 48 01:24:59
574 767 VAN WALLENDAEL Micha F 141 DA 60 01:26:08
575 766 LARTIGUE Catherine F 142 DA 61 01:26:10
576 856 MONFORT Bernadette F 143 A2 28 01:27:36
577 1326 LIBUT Marc M 433 V2 98 01:36:53
578 1327 HUSKIN Denis M 434 V1 156 01:36:54